sensor_id;sensor_type;location;lat;lon;timestamp;pressure;altitude;pressure_sealevel;temperature;humidity
13867;BME280;7003;46.982;15.248;2022-07-10T00:00:13;97528.56;;;16.71;100.00
13867;BME280;7003;46.982;15.248;2022-07-10T00:02:44;97518.22;;;16.53;100.00
13867;BME280;7003;46.982;15.248;2022-07-10T00:05:13;97518.56;;;16.52;100.00
13867;BME280;7003;46.982;15.248;2022-07-10T00:07:43;97510.81;;;16.66;100.00
13867;BME280;7003;46.982;15.248;2022-07-10T00:10:11;97517.81;;;16.71;100.00
13867;BME280;7003;46.982;15.248;2022-07-10T00:12:38;97524.66;;;16.68;100.00
13867;BME280;7003;46.982;15.248;2022-07-10T00:15:06;97520.69;;;16.43;100.00
13867;BME280;7003;46.982;15.248;2022-07-10T00:17:36;97523.44;;;16.46;100.00
13867;BME280;7003;46.982;15.248;2022-07-10T00:20:07;97529.66;;;16.50;100.00
13867;BME280;7003;46.982;15.248;2022-07-10T00:22:36;97532.34;;;16.50;100.00
13867;BME280;7003;46.982;15.248;2022-07-10T00:25:11;97540.97;;;16.60;100.00
13867;BME280;7003;46.982;15.248;2022-07-10T00:27:39;97538.84;;;16.49;100.00
13867;BME280;7003;46.982;15.248;2022-07-10T00:30:08;97543.22;;;16.38;100.00
13867;BME280;7003;46.982;15.248;2022-07-10T00:32:38;97539.13;;;16.44;100.00
13867;BME280;7003;46.982;15.248;2022-07-10T00:35:09;97538.56;;;16.54;100.00
13867;BME280;7003;46.982;15.248;2022-07-10T00:37:42;97538.69;;;16.23;100.00
13867;BME280;7003;46.982;15.248;2022-07-10T00:40:10;97535.88;;;16.35;100.00
13867;BME280;7003;46.982;15.248;2022-07-10T00:42:40;97531.34;;;16.20;100.00
13867;BME280;7003;46.982;15.248;2022-07-10T00:45:09;97528.50;;;16.13;100.00
13867;BME280;7003;46.982;15.248;2022-07-10T00:47:37;97514.84;;;15.83;100.00
13867;BME280;7003;46.982;15.248;2022-07-10T00:50:06;97504.06;;;15.99;100.00
13867;BME280;7003;46.982;15.248;2022-07-10T00:52:35;97498.22;;;16.12;100.00
13867;BME280;7003;46.982;15.248;2022-07-10T00:55:05;97498.56;;;16.11;100.00
13867;BME280;7003;46.982;15.248;2022-07-10T00:57:33;97494.09;;;16.18;100.00
13867;BME280;7003;46.982;15.248;2022-07-10T01:00:01;97495.97;;;16.14;100.00
13867;BME280;7003;46.982;15.248;2022-07-10T01:02:29;97493.47;;;15.87;100.00
13867;BME280;7003;46.982;15.248;2022-07-10T01:05:01;97486.97;;;16.07;100.00
13867;BME280;7003;46.982;15.248;2022-07-10T01:07:31;97489.66;;;16.07;100.00
13867;BME280;7003;46.982;15.248;2022-07-10T01:10:04;97487.13;;;16.14;100.00
13867;BME280;7003;46.982;15.248;2022-07-10T01:12:35;97482.31;;;16.04;100.00
13867;BME280;7003;46.982;15.248;2022-07-10T01:15:04;97485.06;;;16.07;100.00
13867;BME280;7003;46.982;15.248;2022-07-10T01:17:34;97469.75;;;16.08;100.00
13867;BME280;7003;46.982;15.248;2022-07-10T01:20:05;97473.06;;;16.01;100.00
13867;BME280;7003;46.982;15.248;2022-07-10T01:22:35;97469.63;;;16.01;100.00
13867;BME280;7003;46.982;15.248;2022-07-10T01:25:03;97457.59;;;16.14;100.00
13867;BME280;7003;46.982;15.248;2022-07-10T01:27:33;97454.00;;;16.06;100.00
13867;BME280;7003;46.982;15.248;2022-07-10T01:30:01;97453.72;;;16.11;100.00
13867;BME280;7003;46.982;15.248;2022-07-10T01:32:36;97448.78;;;16.33;100.00
13867;BME280;7003;46.982;15.248;2022-07-10T01:35:07;97431.00;;;16.25;100.00
13867;BME280;7003;46.982;15.248;2022-07-10T01:37:36;97430.34;;;16.31;100.00
13867;BME280;7003;46.982;15.248;2022-07-10T01:40:07;97426.59;;;16.36;100.00
13867;BME280;7003;46.982;15.248;2022-07-10T01:42:34;97432.25;;;16.31;100.00
13867;BME280;7003;46.982;15.248;2022-07-10T01:45:05;97427.72;;;16.35;100.00
13867;BME280;7003;46.982;15.248;2022-07-10T01:47:33;97424.91;;;16.28;100.00
13867;BME280;7003;46.982;15.248;2022-07-10T01:50:00;97419.59;;;16.31;100.00
13867;BME280;7003;46.982;15.248;2022-07-10T01:52:30;97415.66;;;16.25;100.00
13867;BME280;7003;46.982;15.248;2022-07-10T01:55:01;97411.69;;;16.19;100.00
13867;BME280;7003;46.982;15.248;2022-07-10T01:57:31;97403.63;;;16.19;100.00
13867;BME280;7003;46.982;15.248;2022-07-10T01:59:58;97402.81;;;16.15;100.00
13867;BME280;7003;46.982;15.248;2022-07-10T02:02:28;97409.59;;;16.09;100.00
13867;BME280;7003;46.982;15.248;2022-07-10T02:04:58;97415.81;;;16.13;100.00
13867;BME280;7003;46.982;15.248;2022-07-10T02:07:24;97414.09;;;16.05;100.00
13867;BME280;7003;46.982;15.248;2022-07-10T02:09:52;97419.91;;;16.07;100.00
13867;BME280;7003;46.982;15.248;2022-07-10T02:12:23;97422.16;;;16.05;100.00
13867;BME280;7003;46.982;15.248;2022-07-10T02:14:53;97428.25;;;16.02;100.00
13867;BME280;7003;46.982;15.248;2022-07-10T02:17:27;97417.50;;;16.02;100.00
13867;BME280;7003;46.982;15.248;2022-07-10T02:19:56;97411.56;;;16.12;100.00
13867;BME280;7003;46.982;15.248;2022-07-10T02:22:24;97409.22;;;16.10;100.00
13867;BME280;7003;46.982;15.248;2022-07-10T02:24:51;97403.38;;;16.24;100.00
13867;BME280;7003;46.982;15.248;2022-07-10T02:27:18;97404.59;;;16.07;100.00
13867;BME280;7003;46.982;15.248;2022-07-10T02:29:47;97398.31;;;16.00;100.00
13867;BME280;7003;46.982;15.248;2022-07-10T02:32:16;97394.84;;;15.99;100.00
13867;BME280;7003;46.982;15.248;2022-07-10T02:34:43;97402.25;;;16.06;100.00
13867;BME280;7003;46.982;15.248;2022-07-10T02:37:13;97396.88;;;16.06;100.00
13867;BME280;7003;46.982;15.248;2022-07-10T02:39:40;97393.75;;;16.04;100.00
13867;BME280;7003;46.982;15.248;2022-07-10T02:42:07;97384.59;;;15.86;100.00
13867;BME280;7003;46.982;15.248;2022-07-10T02:44:34;97397.09;;;15.78;100.00
13867;BME280;7003;46.982;15.248;2022-07-10T02:47:12;97406.41;;;15.49;100.00
13867;BME280;7003;46.982;15.248;2022-07-10T02:49:41;97429.88;;;15.36;100.00
13867;BME280;7003;46.982;15.248;2022-07-10T02:52:09;97429.25;;;15.43;100.00
13867;BME280;7003;46.982;15.248;2022-07-10T02:54:39;97425.59;;;15.51;100.00
13867;BME280;7003;46.982;15.248;2022-07-10T02:57:06;97422.84;;;15.63;100.00
13867;BME280;7003;46.982;15.248;2022-07-10T02:59:37;97411.84;;;15.68;100.00
13867;BME280;7003;46.982;15.248;2022-07-10T03:02:07;97410.00;;;15.72;100.00
13867;BME280;7003;46.982;15.248;2022-07-10T03:04:36;97415.78;;;15.39;100.00
13867;BME280;7003;46.982;15.248;2022-07-10T03:07:05;97416.97;;;15.42;100.00
13867;BME280;7003;46.982;15.248;2022-07-10T03:09:33;97418.28;;;15.48;100.00
13867;BME280;7003;46.982;15.248;2022-07-10T03:12:03;97425.28;;;15.37;100.00
13867;BME280;7003;46.982;15.248;2022-07-10T03:14:30;97427.44;;;15.47;100.00
13867;BME280;7003;46.982;15.248;2022-07-10T03:16:58;97441.88;;;15.58;100.00
13867;BME280;7003;46.982;15.248;2022-07-10T03:19:25;97452.41;;;15.51;100.00
13867;BME280;7003;46.982;15.248;2022-07-10T03:21:54;97440.16;;;15.34;100.00
13867;BME280;7003;46.982;15.248;2022-07-10T03:24:22;97446.81;;;15.40;100.00
13867;BME280;7003;46.982;15.248;2022-07-10T03:26:49;97447.16;;;15.39;100.00
13867;BME280;7003;46.982;15.248;2022-07-10T03:29:16;97456.00;;;15.24;100.00
13867;BME280;7003;46.982;15.248;2022-07-10T03:31:46;97459.69;;;15.35;100.00
13867;BME280;7003;46.982;15.248;2022-07-10T03:34:16;97458.41;;;15.29;100.00
13867;BME280;7003;46.982;15.248;2022-07-10T03:36:43;97463.50;;;15.34;100.00
13867;BME280;7003;46.982;15.248;2022-07-10T03:39:12;97464.38;;;15.07;100.00
13867;BME280;7003;46.982;15.248;2022-07-10T03:41:42;97460.50;;;15.20;100.00
13867;BME280;7003;46.982;15.248;2022-07-10T03:44:10;97454.44;;;15.23;100.00
13867;BME280;7003;46.982;15.248;2022-07-10T03:46:39;97448.59;;;15.17;100.00
13867;BME280;7003;46.982;15.248;2022-07-10T03:49:07;97440.09;;;14.99;100.00
13867;BME280;7003;46.982;15.248;2022-07-10T03:51:38;97437.25;;;14.92;100.00
13867;BME280;7003;46.982;15.248;2022-07-10T03:54:05;97438.66;;;15.02;100.00
13867;BME280;7003;46.982;15.248;2022-07-10T03:56:34;97441.13;;;14.95;100.00
13867;BME280;7003;46.982;15.248;2022-07-10T03:59:25;97430.84;;;14.97;100.00
13867;BME280;7003;46.982;15.248;2022-07-10T04:01:56;97416.22;;;15.10;100.00
13867;BME280;7003;46.982;15.248;2022-07-10T04:04:24;97405.00;;;15.05;100.00
13867;BME280;7003;46.982;15.248;2022-07-10T04:06:51;97399.06;;;14.80;100.00
13867;BME280;7003;46.982;15.248;2022-07-10T04:09:19;97402.69;;;14.72;100.00
13867;BME280;7003;46.982;15.248;2022-07-10T04:11:51;97389.28;;;14.56;100.00
13867;BME280;7003;46.982;15.248;2022-07-10T04:14:19;97386.53;;;14.52;100.00
13867;BME280;7003;46.982;15.248;2022-07-10T04:16:47;97382.91;;;14.60;100.00
13867;BME280;7003;46.982;15.248;2022-07-10T04:19:14;97377.06;;;14.71;100.00
13867;BME280;7003;46.982;15.248;2022-07-10T04:21:42;97365.97;;;14.72;100.00
13867;BME280;7003;46.982;15.248;2022-07-10T04:24:11;97372.09;;;14.88;100.00
13867;BME280;7003;46.982;15.248;2022-07-10T04:26:41;97368.81;;;14.79;100.00
13867;BME280;7003;46.982;15.248;2022-07-10T04:29:14;97379.13;;;14.77;100.00
13867;BME280;7003;46.982;15.248;2022-07-10T04:31:44;97374.78;;;14.88;100.00
13867;BME280;7003;46.982;15.248;2022-07-10T04:34:13;97385.41;;;15.16;100.00
13867;BME280;7003;46.982;15.248;2022-07-10T04:36:41;97381.41;;;15.10;100.00
13867;BME280;7003;46.982;15.248;2022-07-10T04:39:09;97397.25;;;15.15;100.00
13867;BME280;7003;46.982;15.248;2022-07-10T04:41:37;97395.06;;;15.21;100.00
13867;BME280;7003;46.982;15.248;2022-07-10T04:44:04;97395.50;;;15.23;100.00
13867;BME280;7003;46.982;15.248;2022-07-10T04:46:34;97388.72;;;15.29;100.00
13867;BME280;7003;46.982;15.248;2022-07-10T04:49:02;97388.88;;;15.01;100.00
13867;BME280;7003;46.982;15.248;2022-07-10T04:51:30;97397.94;;;14.96;100.00
13867;BME280;7003;46.982;15.248;2022-07-10T04:53:57;97401.56;;;14.88;100.00
13867;BME280;7003;46.982;15.248;2022-07-10T04:56:28;97390.78;;;15.00;100.00
13867;BME280;7003;46.982;15.248;2022-07-10T04:58:57;97384.69;;;15.03;100.00
13867;BME280;7003;46.982;15.248;2022-07-10T05:01:26;97384.88;;;15.11;100.00
13867;BME280;7003;46.982;15.248;2022-07-10T05:03:55;97389.16;;;15.31;100.00
13867;BME280;7003;46.982;15.248;2022-07-10T05:06:23;97383.75;;;15.12;100.00
13867;BME280;7003;46.982;15.248;2022-07-10T05:08:53;97385.97;;;15.25;100.00
13867;BME280;7003;46.982;15.248;2022-07-10T05:11:22;97387.69;;;15.33;100.00
13867;BME280;7003;46.982;15.248;2022-07-10T05:13:52;97393.22;;;15.56;100.00
13867;BME280;7003;46.982;15.248;2022-07-10T05:16:20;97385.66;;;15.62;100.00
13867;BME280;7003;46.982;15.248;2022-07-10T05:18:50;97382.47;;;15.56;100.00
13867;BME280;7003;46.982;15.248;2022-07-10T05:21:22;97382.00;;;15.70;100.00
13867;BME280;7003;46.982;15.248;2022-07-10T05:23:51;97380.50;;;15.72;100.00
13867;BME280;7003;46.982;15.248;2022-07-10T05:26:20;97381.78;;;15.78;100.00
13867;BME280;7003;46.982;15.248;2022-07-10T05:28:48;97378.94;;;15.91;100.00
13867;BME280;7003;46.982;15.248;2022-07-10T05:31:16;97391.09;;;15.85;100.00
13867;BME280;7003;46.982;15.248;2022-07-10T05:33:44;97396.25;;;15.74;100.00
13867;BME280;7003;46.982;15.248;2022-07-10T05:36:15;97394.63;;;15.89;100.00
13867;BME280;7003;46.982;15.248;2022-07-10T05:38:45;97391.00;;;15.81;100.00
13867;BME280;7003;46.982;15.248;2022-07-10T05:41:13;97399.16;;;15.85;100.00
13867;BME280;7003;46.982;15.248;2022-07-10T05:43:41;97394.75;;;15.96;100.00
13867;BME280;7003;46.982;15.248;2022-07-10T05:46:12;97391.38;;;15.79;100.00
13867;BME280;7003;46.982;15.248;2022-07-10T05:48:40;97390.97;;;15.77;100.00
13867;BME280;7003;46.982;15.248;2022-07-10T05:51:07;97386.50;;;15.85;100.00
13867;BME280;7003;46.982;15.248;2022-07-10T05:53:35;97386.22;;;15.90;100.00
13867;BME280;7003;46.982;15.248;2022-07-10T05:56:05;97381.97;;;15.89;100.00
13867;BME280;7003;46.982;15.248;2022-07-10T05:58:35;97391.38;;;15.99;100.00
13867;BME280;7003;46.982;15.248;2022-07-10T06:01:06;97389.41;;;15.76;100.00
13867;BME280;7003;46.982;15.248;2022-07-10T06:03:33;97393.22;;;15.75;100.00
13867;BME280;7003;46.982;15.248;2022-07-10T06:06:04;97384.47;;;15.78;100.00
13867;BME280;7003;46.982;15.248;2022-07-10T06:08:32;97386.94;;;15.87;100.00
13867;BME280;7003;46.982;15.248;2022-07-10T06:11:02;97387.28;;;16.05;100.00
13867;BME280;7003;46.982;15.248;2022-07-10T06:13:31;97390.38;;;16.07;100.00
13867;BME280;7003;46.982;15.248;2022-07-10T06:15:59;97402.94;;;16.03;100.00
13867;BME280;7003;46.982;15.248;2022-07-10T06:18:30;97418.63;;;16.20;100.00
13867;BME280;7003;46.982;15.248;2022-07-10T06:20:58;97423.13;;;15.97;100.00
13867;BME280;7003;46.982;15.248;2022-07-10T06:23:26;97419.41;;;16.01;100.00
13867;BME280;7003;46.982;15.248;2022-07-10T06:25:54;97417.91;;;16.23;100.00
13867;BME280;7003;46.982;15.248;2022-07-10T06:28:24;97411.81;;;16.26;100.00
13867;BME280;7003;46.982;15.248;2022-07-10T06:30:56;97410.91;;;16.18;100.00
13867;BME280;7003;46.982;15.248;2022-07-10T06:33:26;97412.84;;;16.18;100.00
13867;BME280;7003;46.982;15.248;2022-07-10T06:35:57;97407.06;;;16.16;100.00
13867;BME280;7003;46.982;15.248;2022-07-10T06:38:25;97404.22;;;16.09;100.00
13867;BME280;7003;46.982;15.248;2022-07-10T06:40:53;97407.75;;;16.13;100.00
13867;BME280;7003;46.982;15.248;2022-07-10T06:43:21;97401.69;;;16.16;100.00
13867;BME280;7003;46.982;15.248;2022-07-10T06:45:49;97409.56;;;16.28;100.00
13867;BME280;7003;46.982;15.248;2022-07-10T06:48:19;97416.63;;;16.36;100.00
13867;BME280;7003;46.982;15.248;2022-07-10T06:50:48;97412.81;;;16.37;100.00
13867;BME280;7003;46.982;15.248;2022-07-10T06:53:17;97426.66;;;16.39;100.00
13867;BME280;7003;46.982;15.248;2022-07-10T06:55:52;97435.91;;;16.42;100.00
13867;BME280;7003;46.982;15.248;2022-07-10T06:58:20;97432.75;;;16.17;100.00
13867;BME280;7003;46.982;15.248;2022-07-10T07:00:48;97432.75;;;16.17;100.00
13867;BME280;7003;46.982;15.248;2022-07-10T07:03:21;97422.00;;;15.98;100.00
13867;BME280;7003;46.982;15.248;2022-07-10T07:05:51;97414.94;;;15.90;100.00
13867;BME280;7003;46.982;15.248;2022-07-10T07:08:19;97418.84;;;16.11;100.00
13867;BME280;7003;46.982;15.248;2022-07-10T07:10:50;97418.91;;;16.15;100.00
13867;BME280;7003;46.982;15.248;2022-07-10T07:13:20;97416.00;;;16.04;100.00
13867;BME280;7003;46.982;15.248;2022-07-10T07:15:50;97407.88;;;15.82;100.00
13867;BME280;7003;46.982;15.248;2022-07-10T07:18:27;97411.84;;;15.68;100.00
13867;BME280;7003;46.982;15.248;2022-07-10T07:21:01;97420.25;;;16.05;100.00
13867;BME280;7003;46.982;15.248;2022-07-10T07:23:49;97402.69;;;16.08;100.00
13867;BME280;7003;46.982;15.248;2022-07-10T07:26:17;97416.88;;;16.08;100.00
13867;BME280;7003;46.982;15.248;2022-07-10T07:28:45;97414.53;;;16.07;100.00
13867;BME280;7003;46.982;15.248;2022-07-10T07:31:13;97406.28;;;16.15;100.00
13867;BME280;7003;46.982;15.248;2022-07-10T07:33:45;97411.06;;;16.26;100.00
13867;BME280;7003;46.982;15.248;2022-07-10T07:36:13;97403.63;;;16.38;100.00
13867;BME280;7003;46.982;15.248;2022-07-10T07:38:41;97399.28;;;16.53;100.00
13867;BME280;7003;46.982;15.248;2022-07-10T07:41:11;97401.78;;;16.62;100.00
13867;BME280;7003;46.982;15.248;2022-07-10T07:43:42;97395.03;;;16.94;100.00
13867;BME280;7003;46.982;15.248;2022-07-10T07:46:12;97395.03;;;17.20;100.00
13867;BME280;7003;46.982;15.248;2022-07-10T07:48:40;97383.78;;;17.64;100.00
13867;BME280;7003;46.982;15.248;2022-07-10T07:51:12;97385.50;;;17.79;100.00
13867;BME280;7003;46.982;15.248;2022-07-10T07:53:43;97382.41;;;18.11;100.00
13867;BME280;7003;46.982;15.248;2022-07-10T07:56:13;97369.97;;;17.99;100.00
13867;BME280;7003;46.982;15.248;2022-07-10T07:58:45;97382.03;;;18.49;100.00
13867;BME280;7003;46.982;15.248;2022-07-10T08:01:15;97377.91;;;19.06;100.00
13867;BME280;7003;46.982;15.248;2022-07-10T08:03:43;97375.47;;;19.42;100.00
13867;BME280;7003;46.982;15.248;2022-07-10T08:06:14;97377.22;;;19.78;100.00
13867;BME280;7003;46.982;15.248;2022-07-10T08:08:43;97375.75;;;19.26;100.00
13867;BME280;7003;46.982;15.248;2022-07-10T08:11:14;97379.00;;;19.49;100.00
13867;BME280;7003;46.982;15.248;2022-07-10T08:13:42;97378.00;;;19.79;100.00
13867;BME280;7003;46.982;15.248;2022-07-10T08:16:10;97370.81;;;20.25;100.00
13867;BME280;7003;46.982;15.248;2022-07-10T08:18:40;97377.06;;;20.51;100.00
13867;BME280;7003;46.982;15.248;2022-07-10T08:21:08;97373.63;;;20.75;100.00
13867;BME280;7003;46.982;15.248;2022-07-10T08:23:40;97376.31;;;20.57;100.00
13867;BME280;7003;46.982;15.248;2022-07-10T08:26:10;97375.09;;;20.33;100.00
13867;BME280;7003;46.982;15.248;2022-07-10T08:28:40;97372.09;;;20.74;100.00
13867;BME280;7003;46.982;15.248;2022-07-10T08:31:12;97374.38;;;20.44;100.00
13867;BME280;7003;46.982;15.248;2022-07-10T08:33:40;97373.22;;;20.80;100.00
13867;BME280;7003;46.982;15.248;2022-07-10T08:36:09;97373.63;;;20.71;100.00
13867;BME280;7003;46.982;15.248;2022-07-10T08:38:40;97369.38;;;20.70;100.00
13867;BME280;7003;46.982;15.248;2022-07-10T08:41:09;97365.13;;;20.73;100.00
13867;BME280;7003;46.982;15.248;2022-07-10T08:43:39;97354.69;;;20.71;100.00
13867;BME280;7003;46.982;15.248;2022-07-10T08:46:11;97345.44;;;20.97;100.00
13867;BME280;7003;46.982;15.248;2022-07-10T08:48:41;97343.13;;;20.82;100.00
13867;BME280;7003;46.982;15.248;2022-07-10T08:51:16;97334.59;;;21.04;100.00
13867;BME280;7003;46.982;15.248;2022-07-10T08:53:51;97344.66;;;20.51;100.00
13867;BME280;7003;46.982;15.248;2022-07-10T08:56:21;97336.84;;;20.17;100.00
13867;BME280;7003;46.982;15.248;2022-07-10T08:58:52;97324.19;;;20.43;100.00
13867;BME280;7003;46.982;15.248;2022-07-10T09:01:24;97323.34;;;20.17;100.00
13867;BME280;7003;46.982;15.248;2022-07-10T09:03:54;97324.44;;;19.88;100.00
13867;BME280;7003;46.982;15.248;2022-07-10T09:06:24;97317.16;;;20.17;100.00
13867;BME280;7003;46.982;15.248;2022-07-10T09:09:01;97314.47;;;20.20;100.00
13867;BME280;7003;46.982;15.248;2022-07-10T09:11:31;97322.97;;;20.29;100.00
13867;BME280;7003;46.982;15.248;2022-07-10T09:14:04;97317.63;;;20.51;100.00
13867;BME280;7003;46.982;15.248;2022-07-10T09:16:35;97315.19;;;19.99;100.00
13867;BME280;7003;46.982;15.248;2022-07-10T09:19:15;97316.81;;;20.32;100.00
13867;BME280;7003;46.982;15.248;2022-07-10T09:21:45;97317.63;;;20.83;100.00
13867;BME280;7003;46.982;15.248;2022-07-10T09:24:15;97309.91;;;20.63;100.00
13867;BME280;7003;46.982;15.248;2022-07-10T09:26:58;97310.66;;;20.92;100.00
13867;BME280;7003;46.982;15.248;2022-07-10T09:29:32;97312.22;;;20.58;100.00
13867;BME280;7003;46.982;15.248;2022-07-10T09:32:02;97311.06;;;20.66;100.00
13867;BME280;7003;46.982;15.248;2022-07-10T09:34:36;97307.56;;;20.76;100.00
13867;BME280;7003;46.982;15.248;2022-07-10T09:37:20;97310.94;;;21.47;100.00
13867;BME280;7003;46.982;15.248;2022-07-10T09:39:57;97300.53;;;21.39;100.00
13867;BME280;7003;46.982;15.248;2022-07-10T09:42:32;97298.69;;;22.09;100.00
13867;BME280;7003;46.982;15.248;2022-07-10T09:45:14;97302.94;;;22.10;100.00
13867;BME280;7003;46.982;15.248;2022-07-10T09:47:46;97301.00;;;22.14;100.00
13867;BME280;7003;46.982;15.248;2022-07-10T09:50:22;97296.53;;;22.41;100.00
13867;BME280;7003;46.982;15.248;2022-07-10T09:52:52;97293.97;;;22.20;100.00
13867;BME280;7003;46.982;15.248;2022-07-10T09:55:24;97288.47;;;22.31;100.00
13867;BME280;7003;46.982;15.248;2022-07-10T09:57:54;97294.59;;;22.42;100.00
13867;BME280;7003;46.982;15.248;2022-07-10T10:00:27;97282.47;;;22.02;100.00
13867;BME280;7003;46.982;15.248;2022-07-10T10:03:01;97277.75;;;22.16;100.00
13867;BME280;7003;46.982;15.248;2022-07-10T10:05:35;97280.66;;;22.43;100.00
13867;BME280;7003;46.982;15.248;2022-07-10T10:08:12;97274.13;;;22.37;100.00
13867;BME280;7003;46.982;15.248;2022-07-10T10:10:46;97279.31;;;22.14;100.00
13867;BME280;7003;46.982;15.248;2022-07-10T10:13:17;97274.94;;;22.82;100.00
13867;BME280;7003;46.982;15.248;2022-07-10T10:15:47;97271.19;;;23.07;100.00
13867;BME280;7003;46.982;15.248;2022-07-10T10:18:20;97264.78;;;22.90;100.00
13867;BME280;7003;46.982;15.248;2022-07-10T10:20:50;97268.19;;;23.31;100.00
13867;BME280;7003;46.982;15.248;2022-07-10T10:23:22;97257.47;;;23.85;100.00
13867;BME280;7003;46.982;15.248;2022-07-10T10:25:56;97262.91;;;23.55;98.74
13867;BME280;7003;46.982;15.248;2022-07-10T10:28:25;97257.53;;;22.73;98.30
13867;BME280;7003;46.982;15.248;2022-07-10T10:30:55;97260.66;;;23.12;92.26
13867;BME280;7003;46.982;15.248;2022-07-10T10:33:43;97252.97;;;23.07;92.68
13867;BME280;7003;46.982;15.248;2022-07-10T10:36:43;97249.47;;;24.01;91.56
13867;BME280;7003;46.982;15.248;2022-07-10T10:39:12;97252.91;;;24.32;87.22
13867;BME280;7003;46.982;15.248;2022-07-10T10:41:44;97248.88;;;23.90;67.00
13867;BME280;7003;46.982;15.248;2022-07-10T10:44:28;97249.16;;;23.69;69.47
13867;BME280;7003;46.982;15.248;2022-07-10T10:47:06;97249.31;;;24.12;68.52
13867;BME280;7003;46.982;15.248;2022-07-10T10:49:59;97238.06;;;25.07;52.15
13867;BME280;7003;46.982;15.248;2022-07-10T10:52:28;97227.88;;;25.30;48.31
13867;BME280;7003;46.982;15.248;2022-07-10T10:55:02;97234.91;;;25.28;53.60
13867;BME280;7003;46.982;15.248;2022-07-10T10:57:39;97231.44;;;25.08;50.59
13867;BME280;7003;46.982;15.248;2022-07-10T11:00:15;97238.66;;;24.95;53.51
13867;BME280;7003;46.982;15.248;2022-07-10T11:03:19;97237.97;;;25.10;55.74
13867;BME280;7003;46.982;15.248;2022-07-10T11:05:50;97233.31;;;25.30;50.98
13867;BME280;7003;46.982;15.248;2022-07-10T11:08:38;97233.88;;;25.22;48.51
13867;BME280;7003;46.982;15.248;2022-07-10T11:11:38;97229.31;;;25.35;50.03
13867;BME280;7003;46.982;15.248;2022-07-10T11:14:12;97237.78;;;25.21;51.24
13867;BME280;7003;46.982;15.248;2022-07-10T11:16:48;97242.56;;;24.47;53.63
13867;BME280;7003;46.982;15.248;2022-07-10T11:19:22;97234.25;;;24.07;56.04
13867;BME280;7003;46.982;15.248;2022-07-10T11:22:11;97234.09;;;23.91;55.89
13867;BME280;7003;46.982;15.248;2022-07-10T11:24:50;97226.44;;;24.09;59.12
13867;BME280;7003;46.982;15.248;2022-07-10T11:27:33;97217.16;;;24.34;51.82
13867;BME280;7003;46.982;15.248;2022-07-10T11:30:10;97216.50;;;24.73;50.11
13867;BME280;7003;46.982;15.248;2022-07-10T11:32:38;97215.81;;;24.88;47.62
13867;BME280;7003;46.982;15.248;2022-07-10T11:35:11;97206.16;;;25.27;48.35
13867;BME280;7003;46.982;15.248;2022-07-10T11:37:52;97198.41;;;25.81;47.56
13867;BME280;7003;46.982;15.248;2022-07-10T11:40:22;97197.16;;;26.51;47.84
13867;BME280;7003;46.982;15.248;2022-07-10T11:42:52;97202.06;;;25.75;40.42
13867;BME280;7003;46.982;15.248;2022-07-10T11:45:29;97196.88;;;25.24;44.81
13867;BME280;7003;46.982;15.248;2022-07-10T11:47:59;97198.13;;;25.20;46.45
13867;BME280;7003;46.982;15.248;2022-07-10T11:50:35;97193.47;;;25.01;45.57
13867;BME280;7003;46.982;15.248;2022-07-10T11:53:06;97191.50;;;25.01;47.74
13867;BME280;7003;46.982;15.248;2022-07-10T11:55:37;97196.31;;;25.13;43.90
13867;BME280;7003;46.982;15.248;2022-07-10T11:58:14;97192.50;;;24.87;50.60
13867;BME280;7003;46.982;15.248;2022-07-10T12:00:57;97200.13;;;24.76;48.06
13867;BME280;7003;46.982;15.248;2022-07-10T12:03:28;97191.91;;;25.39;50.82
13867;BME280;7003;46.982;15.248;2022-07-10T12:06:01;97194.63;;;25.39;46.93
13867;BME280;7003;46.982;15.248;2022-07-10T12:08:29;97196.13;;;24.81;44.21
13867;BME280;7003;46.982;15.248;2022-07-10T12:10:57;97189.03;;;24.44;43.85
13867;BME280;7003;46.982;15.248;2022-07-10T12:13:27;97200.94;;;24.73;43.91
13867;BME280;7003;46.982;15.248;2022-07-10T12:15:57;97204.28;;;24.38;45.10
13867;BME280;7003;46.982;15.248;2022-07-10T12:18:27;97200.03;;;23.60;45.41
13867;BME280;7003;46.982;15.248;2022-07-10T12:20:58;97204.41;;;23.50;48.94
13867;BME280;7003;46.982;15.248;2022-07-10T12:23:30;97207.97;;;23.44;46.22
13867;BME280;7003;46.982;15.248;2022-07-10T12:25:58;97221.34;;;23.27;47.18
13867;BME280;7003;46.982;15.248;2022-07-10T12:28:27;97207.81;;;23.24;49.41
13867;BME280;7003;46.982;15.248;2022-07-10T12:30:57;97212.06;;;22.91;47.90
13867;BME280;7003;46.982;15.248;2022-07-10T12:33:25;97225.78;;;23.14;49.44
13867;BME280;7003;46.982;15.248;2022-07-10T12:35:57;97227.94;;;23.26;48.30
13867;BME280;7003;46.982;15.248;2022-07-10T12:38:28;97229.00;;;23.36;48.58
13867;BME280;7003;46.982;15.248;2022-07-10T12:41:08;97229.56;;;23.20;50.82
13867;BME280;7003;46.982;15.248;2022-07-10T12:43:39;97232.00;;;23.11;50.22
13867;BME280;7003;46.982;15.248;2022-07-10T12:46:14;97234.91;;;23.27;47.99
13867;BME280;7003;46.982;15.248;2022-07-10T12:48:43;97230.34;;;23.21;47.39
13867;BME280;7003;46.982;15.248;2022-07-10T12:51:25;97242.56;;;23.36;46.57
13867;BME280;7003;46.982;15.248;2022-07-10T12:53:55;97240.16;;;23.75;45.88
13867;BME280;7003;46.982;15.248;2022-07-10T12:56:30;97241.47;;;24.17;45.79
13867;BME280;7003;46.982;15.248;2022-07-10T12:59:02;97246.66;;;24.59;45.88
13867;BME280;7003;46.982;15.248;2022-07-10T13:01:41;97231.28;;;25.15;43.67
13867;BME280;7003;46.982;15.248;2022-07-10T13:04:12;97226.66;;;25.51;44.78
13867;BME280;7003;46.982;15.248;2022-07-10T13:06:41;97228.06;;;25.95;42.23
13867;BME280;7003;46.982;15.248;2022-07-10T13:09:19;97225.25;;;25.99;41.26
13867;BME280;7003;46.982;15.248;2022-07-10T13:11:48;97227.41;;;25.72;41.65